Airfield :
LOGIN :

Register | Disclaimer

   EN    FR    IT 

 










Legend :    VFR   Marginal VFR   IFR   Intensive IFR   Very Intensive IFR
Visi :
Ceiling :
>= 8 km
>= 3000ft
5 to 8 km
1000 to 3000 ft
1500m to 5 km
500 to 1000 ft
800 to 1500m
200 to 500 ft
< 800m
< 200 ft
Symbols :   Thunderstorms  Fog  Heavy snow  Heavy precipitations  Wind > 20 kt
SIGMETs :     Misc.  Thunderstorms  Icing  Turbulence  Mountain Waves  Volcanic Ashes






- Airport Elevation : 614 ft
- IATA code : CRL


EBCI - Charleroi

CURRENT METAR :
  • 171950Z 20009KT 9999 FEW008 BKN010 13/11 Q1010 TEMPO BKN006

EXPIRED METARs :
  • 171920Z 20011KT 9999 SCT008 BKN010 13/11 Q1010 TEMPO BKN006
  • 171850Z 20008KT 9999 SCT008 BKN010 12/11 Q1010 TEMPO BKN006
  • 171820Z 20006KT 9999 SCT010 12/11 Q1010 TEMPO BKN007
  • 171750Z 19005KT 9999 FEW007 SCT030 12/11 Q1009 NOSIG
  • 171720Z 20004KT 160V220 9999 SCT010 SCT030 12/11 Q1009 NOSIG

TAF TAF EBCI
Valid from the 17 at 18:00 until the 19 at 00:00 UTC


171700Z 1718/1824 19008KT 9999 FEW020 SCT030
TEMPO 1721/1815 19015G25KT 4500 SHRA
TEMPO 1803/1808 BKN008
PROB30
TEMPO 1808/1815 21018G32KT



MET'MAP, your aeronautical weather chart ! - Copyright ORBIFLY December 2007 - Disclaimer

ORBIFLY MET'MAP TEAM :

Programming & Development : Alexandra Zaïnal
Concept & Development : Baudouin d'Aumeries
Co-Development & Prog : Marc-Olivier Méhu
Technical & hardware support : Manuel Goepfert

Contact : metmap@orbifly.com




SOURCES & CREDITS :

   NOAA